National Weather Service Raw Text Product

Displaying AFOS PIL: TAFALO Received: 2018-01-12 23:33 UTC


300 
FTUS43 KDMX 122333
TAFALO
TAF
KALO 122333Z 1300/1324 34010KT P6SM SCT250
     FM131000 33008KT P6SM SKC=